Accueil
METAR-TAF:

METAR-TAF

Aéroports :

Loei, Thaïlande

latitude: 17-27N, longitude: 101-44E, altitude: 253 m

Observation

Le bulletin a été fait il y a 7 heures et 59 minutes, à 12:00 UTC
Vent calme
Température 29°C
Humidité 74%
Pression 1010 hPa
Visibilité 10 km ou plus
Nuages épars à une hauteur de 3000 ft

METAR: VTUL 071200Z 00000KT 9999 SCT030 29/24 Q1010 NOSIG

Heure: 02:59 (19:59 UTC)

Prévision

Le bulletin a été fait il y a 2 heures et 59 minutes, à 17:00 UTC
Prévision valable du 07 à 18 UTC au 08 à 18 UTC
Vent 3 kt de ouest
Visibilité 10 km ou plus
Nuages épars à une hauteur de 3000 ft
Evoluant progressivement
du 07 à 22 UTC au 07 à 24 UTC
Visibilité: 4500 m
brume
Evoluant progressivement
du 08 à 00 UTC au 08 à 02 UTC
Visibilité: 9000 m

TAF: VTUL 071700Z 0718/0818 28003KT 9999 SCT030 BECMG 0722/0724 4500 BR BECMG 0800/0802 9000 NSW

Observations et prévisions météorologiques de plus de 4000 aéroports (messages METAR et TAF).

Les stations disponibles sont représentées par des disques jaunes et rouges sur la carte.

Passer la souris dessus pour voir le nom de la station.

Cliquer dessus pour voir les observations et prévisions météorologiques.

Pour changer de carte: cliquez sur les boutons verts avec une croix noire pour zoomer, sur le bouton vert avec un tiret pour effectuer un zoom arrière, ou sur les flèches vertes pour les cartes adjacentes.


METAR-TAF: